x

West Point, Wa (wpow1) Weather Station

7:00pm - Sun 22nd Oct 2017 All times are PDT. -7 hours from GMT.

  • Wind
    17mph, 18mph gusts
  • Air Temp 55°f
  • Sea Pressure 1028.1mb
  • West Point, Wa
  • West Point, Wa

More Historic Weather Station data

Upgrade to MSW Pro to gain access to the past 30 days of data for over 8000 Wavebouys and Weather Stations around the globe.

Join

Comparision Forecast

View Surf forecast
   
Sun 10/22 7:00pm 17 18 mph 1028.1mb 55f
6:00pm 16 17 mph 1027.2mb 56f
5:00pm 23 25 mph 1026.2mb 56f
4:00pm 11 15 mph 1025.2mb 57f
3:00pm 11 13 mph 1023.5mb 57f
2:00pm 14 17 mph 1023.4mb 58f
1:00pm 20 23 mph 1022.7mb 57f
12:00pm 7 8 mph 1021.5mb 57f
11:00am 20 23 mph 1019.9mb 55f
10:00am 16 18 mph 1018.8mb 55f
9:00am 22 24 mph 1017.2mb 55f
8:00am 18 20 mph 1015.5mb 54f
7:00am 22 24 mph 1013.4mb 55f
6:00am 26 30 mph 1011.7mb 55f
5:00am 15 17 mph 1010.3mb 56f
4:00am 16 18 mph 1007.8mb 56f
3:00am 28 30 mph 1006.5mb 56f
2:00am 29 31 mph 1005.8mb 56f
1:00am 31 34 mph 1004.5mb 56f
12:00am 29 34 mph 1003.5mb 57f
Sat 10/21 11:00pm 30 33 mph 1003.4mb 58f
10:00pm 29 30 mph 1003mb 57f
9:00pm 30 33 mph 1001.9mb 56f
8:00pm 25 31 mph 1001.9mb 56f
7:00pm 14 16 mph 1002.5mb 52f
6:00pm 14 16 mph 1003mb 50f
5:00pm 13 16 mph 1003.2mb 49f
4:00pm 13 16 mph 1005.3mb 49f
3:00pm 13 15 mph 1006.6mb 49f
2:00pm 11 13 mph 1007.1mb 49f
1:00pm 6 8 mph 1007.6mb 48f
12:00pm 10 11 mph 1008.4mb 48f
11:00am 10 11 mph 1008.4mb 47f
10:00am 11 14 mph 1008.4mb 47f
9:00am 14 16 mph 1008.9mb 47f
8:00am 10 14 mph 1008.9mb 46f
7:00am 6 10 mph 1009.4mb 46f
6:00am 11 16 mph 1010.2mb 46f
5:00am 11 15 mph 1011mb 46f
4:00am 16 18 mph 1012mb 49f
3:00am 10 11 mph 1012.4mb 49f
2:00am 11 13 mph 1012.8mb 48f
1:00am 21 23 mph 1013.1mb 49f
12:00am 18 20 mph 1013.5mb 49f
Fri 10/20 11:00pm 20 24 mph 1013.7mb 50f
10:00pm 24 26 mph 1013.4mb 50f
9:00pm 21 23 mph 1013mb 50f
8:00pm 20 22 mph 1012.7mb 51f
7:00pm 21 23 mph 1012.1mb 51f
6:00pm 17 20 mph 1011mb 52f
5:00pm 10 10 mph 1010mb 52f
4:00pm 22 25 mph 1009mb 52f
3:00pm 17 20 mph 1008.5mb 52f
2:00pm 22 24 mph 1007.7mb 51f
1:00pm 24 26 mph 1007.6mb 51f
12:00pm 24 25 mph 1007.2mb 50f
11:00am 28 30 mph 1006.6mb 49f
10:00am 23 26 mph 1005.8mb 49f
9:00am 31 34 mph 1005mb 50f
7:00am 14 15 mph 1003.9mb 51f
6:00am 9 11 mph 1003.6mb 49f
5:00am 15 16 mph 1002.7mb 49f
4:00am 13 14 mph 1001.6mb 49f
3:00am 9 10 mph 1000.9mb 49f
2:00am 7 9 mph 1000.4mb 50f
1:00am 16 18 mph 999.3mb 51f
12:00am 16 17 mph 999.5mb 50f
Thu 10/19 11:00pm 21 23 mph 999.1mb 52f
10:00pm 22 23 mph 999.1mb 52f
9:00pm 20 21 mph 999mb 52f
8:00pm 18 21 mph 998.7mb 52f
7:00pm 22 24 mph 999mb 52f
6:00pm 20 22 mph 998.3mb 52f
5:00pm 20 23 mph 999.1mb 51f
4:00pm 13 14 mph 998.6mb 50f
3:00pm 24 28 mph 998.4mb 55f
2:00pm 18 18 mph 999.3mb 54f
1:00pm 23 25 mph 999.8mb 54f
12:00pm 22 25 mph 1000.1mb 55f
11:00am 23 25 mph 1000.5mb 55f
10:00am 23 26 mph 1000.9mb 54f
9:00am 23 25 mph 1001.1mb 53f
8:00am 25 28 mph 1000.6mb 53f
7:00am 28 30 mph 1001.4mb 53f
6:00am 25 28 mph 1002.2mb 53f
5:00am 26 30 mph 1002mb 53f
4:00am 30 33 mph 1001.8mb 54f